Time;durP1;ratioP1;P1;durP2;ratioP2;P2;SDS_P1;SDS_P2;PMS_P1;PMS_P2;Temp;Humidity;BMP_temperature;BMP_pressure;BME280_temperature;BME280_humidity;BME280_pressure;Samples;Min_cycle;Max_cycle;Signal;HPM_P1;HPM_P2
2023/11/26 00:00:22;;;;;;;9.32;2.70;;;;;;;29.72;nan;100144.66;7396044;19;20023;-54
2023/11/26 00:02:48;;;;;;;4.93;3.17;;;;;;;30.86;nan;100145.94;7397279;19;20010;-54
2023/11/26 00:05:14;;;;;;;2.30;2.10;;;;;;;31.57;nan;100136.50;7398697;19;20010;-54
2023/11/26 00:07:41;;;;;;;2.85;1.77;;;;;;;31.83;nan;100141.16;7397143;19;20010;-54
2023/11/26 00:10:08;;;;;;;1.33;1.23;;;;;;;32.01;nan;100139.53;7401292;19;20015;-54
2023/11/26 00:12:34;;;;;;;5.43;2.90;;;;;;;32.33;nan;100138.75;7397453;19;20027;-54
2023/11/26 00:15:00;;;;;;;4.32;2.22;;;;;;;32.78;nan;100137.38;7395769;19;20036;-54
2023/11/26 00:17:26;;;;;;;9.82;2.95;;;;;;;33.12;nan;100129.34;7396205;19;20014;-54
2023/11/26 00:19:54;;;;;;;2.63;2.33;;;;;;;33.15;nan;100131.00;7396076;19;20014;-54
2023/11/26 00:22:21;;;;;;;6.43;3.72;;;;;;;32.78;nan;100125.81;7394769;19;20031;-54
2023/11/26 00:24:47;;;;;;;5.97;1.85;;;;;;;32.71;nan;100123.94;7394516;19;20015;-54
2023/11/26 00:27:13;;;;;;;5.13;2.35;;;;;;;13.07;nan;100162.59;7396225;19;20091;-54
2023/11/26 00:29:42;;;;;;;5.15;3.28;;;;;;;9.76;nan;100165.84;7395596;19;20025;-54
2023/11/26 00:32:08;;;;;;;3.63;2.47;;;;;;;8.47;nan;100159.53;7396071;19;20015;-53
2023/11/26 00:34:36;;;;;;;3.50;3.20;;;;;;;7.84;nan;100162.59;7392933;19;20010;-53
2023/11/26 00:37:02;;;;;;;5.03;3.58;;;;;;;27.70;nan;100121.25;7394469;19;20011;-54
2023/11/26 00:39:29;;;;;;;2.80;2.55;;;;;;;31.02;nan;100103.91;7394677;19;20038;-54
2023/11/26 00:41:56;;;;;;;2.25;1.05;;;;;;;31.92;nan;100106.47;7395448;19;20015;-54
2023/11/26 00:44:25;;;;;;;15.55;4.13;;;;;;;32.38;nan;100105.19;7394976;19;20019;-54
2023/11/26 00:46:52;;;;;;;3.35;2.45;;;;;;;32.49;nan;100116.75;7395147;19;20044;-54
2023/11/26 00:49:18;;;;;;;1.48;1.38;;;;;;;32.56;nan;100104.22;7395971;19;20010;-54
2023/11/26 00:51:44;;;;;;;2.97;2.63;;;;;;;33.35;nan;100104.09;7399649;19;20007;-54
2023/11/26 00:54:11;;;;;;;3.50;1.77;;;;;;;33.48;nan;100102.72;7394660;19;20108;-54
2023/11/26 00:56:37;;;;;;;14.90;3.88;;;;;;;33.32;nan;100107.50;7398374;19;20360;-54
2023/11/26 00:59:03;;;;;;;3.35;1.73;;;;;;;33.84;nan;100107.00;7390945;19;20437;-54
2023/11/26 01:01:31;;;;;;;10.63;3.08;;;;;;;34.57;nan;100094.59;7394106;19;20014;-54
2023/11/26 01:03:57;;;;;;;2.20;1.63;;;;;;;35.11;nan;100091.78;7394472;19;20086;-54
2023/11/26 01:06:25;;;;;;;9.02;2.42;;;;;;;35.20;nan;100087.94;7399483;19;20019;-54
2023/11/26 01:08:51;;;;;;;14.00;2.40;;;;;;;35.11;nan;100088.16;7393845;19;20356;-54
2023/11/26 01:11:17;;;;;;;2.47;2.28;;;;;;;35.25;nan;100089.66;7394880;19;20414;-54
2023/11/26 01:13:43;;;;;;;6.15;2.78;;;;;;;35.19;nan;100086.44;7393970;19;20046;-54
2023/11/26 01:16:10;;;;;;;1.23;1.23;;;;;;;35.39;nan;100087.47;7398803;19;20021;-54
2023/11/26 01:18:38;;;;;;;2.33;2.13;;;;;;;35.38;nan;100085.22;7395281;19;20027;-54
2023/11/26 01:21:06;;;;;;;2.03;1.88;;;;;;;35.12;nan;100078.81;7393620;19;20014;-54
2023/11/26 01:23:32;;;;;;;3.80;1.80;;;;;;;35.01;nan;100076.78;7394289;19;20006;-54
2023/11/26 01:25:58;;;;;;;4.88;2.40;;;;;;;35.09;nan;100083.00;7397692;19;20018;-54
2023/11/26 01:28:25;;;;;;;1.67;1.58;;;;;;;34.87;nan;100084.69;7393947;19;20017;-54
2023/11/26 01:30:51;;;;;;;5.50;3.33;;;;;;;34.95;nan;100091.66;7394053;19;20010;-54
2023/11/26 01:33:19;;;;;;;2.95;1.02;;;;;;;34.96;nan;100081.56;7394326;19;20061;-54
2023/11/26 01:35:45;;;;;;;2.50;1.98;;;;;;;34.91;nan;100082.00;7394611;19;20006;-54
2023/11/26 01:38:11;;;;;;;0.98;0.98;;;;;;;11.26;nan;100128.69;7390322;19;20355;-54
2023/11/26 01:40:38;;;;;;;1.35;1.30;;;;;;;11.97;nan;100123.84;7393301;19;20062;-54
2023/11/26 01:43:05;;;;;;;8.43;2.67;;;;;;;5.27;nan;100143.44;7396006;19;20022;-54
2023/11/26 01:45:31;;;;;;;2.70;2.25;;;;;;;3.61;nan;100140.75;7394675;19;20017;-54
2023/11/26 01:47:58;;;;;;;6.95;3.00;;;;;;;2.82;nan;100147.97;7394643;19;20019;-54
2023/11/26 01:50:26;;;;;;;6.18;2.03;;;;;;;2.38;nan;100148.22;7394211;19;20087;-54
2023/11/26 01:52:54;;;;;;;12.10;1.95;;;;;;;2.07;nan;100144.69;7393834;19;20038;-54
2023/11/26 01:55:21;;;;;;;6.50;2.80;;;;;;;1.90;nan;100150.38;7394114;19;20022;-54
2023/11/26 01:57:48;;;;;;;0.70;0.70;;;;;;;3.95;nan;100132.22;7393310;19;20014;-54
2023/11/26 02:00:16;;;;;;;6.22;1.90;;;;;;;2.16;nan;100135.94;7392893;19;20006;-54
2023/11/26 02:02:43;;;;;;;2.55;1.30;;;;;;;1.72;nan;100149.78;7391074;19;20018;-54
2023/11/26 02:05:12;;;;;;;6.75;2.58;;;;;;;1.56;nan;100144.09;7393904;19;20017;-54
2023/11/26 02:07:40;;;;;;;3.28;1.85;;;;;;;1.46;nan;100134.78;7393008;19;20015;-54
2023/11/26 02:10:07;;;;;;;2.22;2.03;;;;;;;1.45;nan;100125.00;7396797;19;20070;-54
2023/11/26 02:12:34;;;;;;;2.85;2.28;;;;;;;1.43;nan;100127.34;7394981;19;20014;-54
2023/11/26 02:15:03;;;;;;;2.75;1.63;;;;;;;1.39;nan;100121.91;7391585;19;20022;-54
2023/11/26 02:17:30;;;;;;;5.47;1.45;;;;;;;1.27;nan;100118.91;7393181;19;20015;-54
2023/11/26 02:20:01;;;;;;;1.50;1.30;;;;;;;1.16;nan;100107.25;7391935;19;20031;-54
2023/11/26 02:22:28;;;;;;;2.13;1.98;;;;;;;1.12;nan;100107.28;7393287;19;20351;-54
2023/11/26 02:24:54;;;;;;;1.58;1.50;;;;;;;19.63;nan;100073.50;7392556;19;20085;-54
2023/11/26 02:27:21;;;;;;;2.92;1.65;;;;;;;4.00;nan;100114.44;7392653;19;20014;-54
2023/11/26 02:29:47;;;;;;;1.40;1.30;;;;;;;2.27;nan;100106.38;7392783;19;20018;-54
2023/11/26 02:32:13;;;;;;;1.48;1.33;;;;;;;1.81;nan;100100.69;7392632;19;20015;-54
2023/11/26 02:34:39;;;;;;;16.02;2.28;;;;;;;1.63;nan;100100.88;7390542;19;20010;-54
2023/11/26 02:37:06;;;;;;;8.98;2.13;;;;;;;1.61;nan;100094.22;7391269;19;20473;-54
2023/11/26 02:39:33;;;;;;;2.70;1.63;;;;;;;1.44;nan;100096.78;7390194;19;20025;-54
2023/11/26 02:41:59;;;;;;;1.27;1.20;;;;;;;1.34;nan;100097.66;7394517;19;20014;-54
2023/11/26 02:44:26;;;;;;;4.28;1.17;;;;;;;1.41;nan;100086.59;7394506;19;20012;-54
2023/11/26 02:46:52;;;;;;;4.07;2.75;;;;;;;1.24;nan;100081.28;7393773;19;20010;-54
2023/11/26 02:49:18;;;;;;;10.05;1.98;;;;;;;1.14;nan;100080.22;7398909;19;20006;-54
2023/11/26 02:51:45;;;;;;;2.10;1.73;;;;;;;1.11;nan;100088.47;7399673;19;20336;-54
2023/11/26 02:54:11;;;;;;;3.80;2.28;;;;;;;0.94;nan;100071.00;7397769;19;20074;-54
2023/11/26 02:56:42;;;;;;;5.07;3.92;;;;;;;1.04;nan;100061.91;7403810;19;20070;-54
2023/11/26 02:59:10;;;;;;;0.55;0.55;;;;;;;1.11;nan;100069.28;7400259;19;20043;-54
2023/11/26 03:01:36;;;;;;;2.75;2.60;;;;;;;1.17;nan;100060.19;7398724;19;20014;-55
2023/11/26 03:04:02;;;;;;;4.00;1.52;;;;;;;1.25;nan;100067.19;7398770;19;20014;-54
2023/11/26 03:06:31;;;;;;;2.45;1.85;;;;;;;1.29;nan;100067.94;7402306;19;20014;-54
2023/11/26 03:09:00;;;;;;;2.67;2.00;;;;;;;1.35;nan;100055.31;7401188;19;20010;-54
2023/11/26 03:14:16;;;;;;;3.88;1.25;;;;;;;1.48;nan;100050.88;7397311;19;20010;-54
2023/11/26 03:16:46;;;;;;;3.37;1.60;;;;;;;1.49;nan;100044.16;7396343;19;20018;-54
2023/11/26 03:19:12;;;;;;;1.55;1.55;;;;;;;1.48;nan;100047.34;7399827;19;20018;-54
2023/11/26 03:21:47;;;;;;;5.32;2.10;;;;;;;1.50;nan;100045.75;7398686;19;20015;-54
2023/11/26 03:24:15;;;;;;;3.38;2.75;;;;;;;1.52;nan;100046.13;7397955;19;20062;-54
2023/11/26 03:26:41;;;;;;;3.28;2.45;;;;;;;1.49;nan;100038.69;7398013;19;20011;-55
2023/11/26 03:29:08;;;;;;;7.30;1.95;;;;;;;1.50;nan;100039.47;7398790;19;20010;-55
2023/11/26 03:31:34;;;;;;;7.72;1.92;;;;;;;1.58;nan;100040.97;7398008;19;20462;-55
2023/11/26 03:34:04;;;;;;;7.80;1.35;;;;;;;1.64;nan;100035.78;7397364;19;20014;-54
2023/11/26 03:36:30;;;;;;;2.50;2.40;;;;;;;1.60;nan;100032.31;7401191;19;20014;-55
2023/11/26 03:38:58;;;;;;;3.80;2.25;;;;;;;2.10;nan;100041.47;7396340;19;20007;-54
2023/11/26 03:41:24;;;;;;;1.52;1.42;;;;;;;1.73;nan;100027.84;7397042;19;20357;-55
2023/11/26 03:43:50;;;;;;;2.13;1.42;;;;;;;1.69;nan;100035.34;7402210;19;20010;-54
2023/11/26 03:46:17;;;;;;;2.08;1.80;;;;;;;1.62;nan;100025.22;7401389;19;20022;-55
2023/11/26 03:48:45;;;;;;;4.95;1.75;;;;;;;1.75;nan;100022.72;7398303;19;20038;-55
2023/11/26 03:51:16;;;;;;;4.15;2.05;;;;;;;1.66;nan;100022.44;7396854;19;20026;-55
2023/11/26 03:53:43;;;;;;;3.03;1.43;;;;;;;1.46;nan;100028.53;7397375;19;20035;-54
2023/11/26 03:56:10;;;;;;;1.90;1.42;;;;;;;1.38;nan;100029.81;7401289;19;20007;-55
2023/11/26 03:58:38;;;;;;;5.47;2.67;;;;;;;1.36;nan;100026.72;7396932;19;20010;-55
2023/11/26 04:01:04;;;;;;;1.50;0.93;;;;;;;1.38;nan;100032.56;7395500;19;20023;-55
2023/11/26 04:03:30;;;;;;;3.38;1.73;;;;;;;1.40;nan;100032.94;7397353;19;20018;-55
2023/11/26 04:05:56;;;;;;;4.55;1.75;;;;;;;1.52;nan;100032.38;7399925;19;20007;-55
2023/11/26 04:08:23;;;;;;;5.57;3.22;;;;;;;1.41;nan;100031.72;7398074;19;20018;-54
2023/11/26 04:10:49;;;;;;;6.95;2.42;;;;;;;2.86;nan;100024.94;7396293;19;20475;-55
2023/11/26 04:13:17;;;;;;;2.30;2.08;;;;;;;1.73;nan;100031.38;7400257;19;20031;-55
2023/11/26 04:15:54;;;;;;;2.78;1.33;;;;;;;1.46;nan;100023.06;7397197;19;20011;-55
2023/11/26 04:18:27;;;;;;;6.03;2.25;;;;;;;1.40;nan;100016.47;7395623;19;20014;-55
2023/11/26 04:20:54;;;;;;;1.70;1.60;;;;;;;1.38;nan;100021.59;7397517;19;20014;-55
2023/11/26 04:23:21;;;;;;;3.50;2.28;;;;;;;1.31;nan;100016.19;7396801;19;20025;-54
2023/11/26 04:25:48;;;;;;;4.93;2.45;;;;;;;1.21;nan;100016.31;7399546;19;20006;-54
2023/11/26 04:28:14;;;;;;;0.65;0.52;;;;;;;1.15;nan;100018.69;7395353;19;20042;-54
2023/11/26 04:30:40;;;;;;;9.48;2.25;;;;;;;1.28;nan;100008.75;7395942;19;20022;-54
2023/11/26 04:33:07;;;;;;;4.78;2.90;;;;;;;1.33;nan;100007.53;7396995;19;20006;-54
2023/11/26 04:35:34;;;;;;;4.25;2.35;;;;;;;1.20;nan;100004.53;7395981;19;20463;-54
2023/11/26 04:38:00;;;;;;;17.00;2.17;;;;;;;1.27;nan;100001.72;7396504;19;20011;-54
2023/11/26 04:40:26;;;;;;;3.35;1.55;;;;;;;1.21;nan;100010.81;7396427;19;20021;-54
2023/11/26 04:42:52;;;;;;;2.33;2.15;;;;;;;1.22;nan;100004.91;7398089;19;20685;-55
2023/11/26 04:45:18;;;;;;;1.60;1.50;;;;;;;5.60;nan;100006.06;7397613;19;20017;-55
2023/11/26 04:47:44;;;;;;;3.42;1.80;;;;;;;3.32;nan;100006.81;7394406;19;20014;-55
2023/11/26 04:50:10;;;;;;;9.38;2.78;;;;;;;10.31;nan;99983.66;7396454;19;20074;-55
2023/11/26 04:52:36;;;;;;;2.17;1.77;;;;;;;3.34;nan;100001.66;7395749;19;20049;-55
2023/11/26 04:55:03;;;;;;;8.05;2.55;;;;;;;3.61;nan;99996.78;7396312;19;20007;-55
2023/11/26 04:57:30;;;;;;;4.95;2.80;;;;;;;4.64;nan;99984.97;7395388;19;20014;-55
2023/11/26 04:59:56;;;;;;;2.78;2.25;;;;;;;2.18;nan;99993.47;7395192;19;20092;-55
2023/11/26 05:02:22;;;;;;;2.15;2.03;;;;;;;10.17;nan;99972.44;7394556;19;20017;-55
2023/11/26 05:04:48;;;;;;;3.30;2.67;;;;;;;7.24;nan;99967.97;7395610;19;20007;-55
2023/11/26 05:07:14;;;;;;;8.32;4.22;;;;;;;2.49;nan;99985.91;7394722;19;20074;-55
2023/11/26 05:09:41;;;;;;;5.10;1.38;;;;;;;16.60;nan;99956.00;7398563;19;20019;-55
2023/11/26 05:12:07;;;;;;;7.70;2.67;;;;;;;5.49;nan;99977.94;7395665;19;20010;-55
2023/11/26 05:14:33;;;;;;;5.68;1.55;;;;;;;2.83;nan;99976.28;7393282;19;20018;-55
2023/11/26 05:16:59;;;;;;;4.72;2.28;;;;;;;2.13;nan;99971.94;7395571;19;20391;-55
2023/11/26 05:19:26;;;;;;;6.75;2.42;;;;;;;1.79;nan;99965.78;7394665;19;20010;-55
2023/11/26 05:21:52;;;;;;;3.22;1.88;;;;;;;1.59;nan;99964.88;7394168;19;20011;-55
2023/11/26 05:24:18;;;;;;;3.25;2.00;;;;;;;1.48;nan;99960.31;7394827;19;20473;-55
2023/11/26 05:26:45;;;;;;;3.83;3.35;;;;;;;1.43;nan;99969.00;7394331;19;20031;-55
2023/11/26 05:29:12;;;;;;;0.38;0.38;;;;;;;1.41;nan;99959.63;7394459;19;20014;-55
2023/11/26 05:31:38;;;;;;;0.73;0.73;;;;;;;1.36;nan;99963.63;7394273;19;20031;-55
2023/11/26 05:34:04;;;;;;;1.05;0.98;;;;;;;1.35;nan;99956.56;7392801;19;20018;-55
2023/11/26 05:36:30;;;;;;;7.32;1.45;;;;;;;1.34;nan;99959.72;7398129;19;20086;-55
2023/11/26 05:38:56;;;;;;;3.45;2.38;;;;;;;1.32;nan;99951.88;7394213;19;20011;-55
2023/11/26 05:41:26;;;;;;;1.38;1.27;;;;;;;1.29;nan;99949.19;7394465;19;20011;-55
2023/11/26 05:43:52;;;;;;;2.38;2.28;;;;;;;1.29;nan;99947.22;7398616;19;20474;-55
2023/11/26 05:46:18;;;;;;;7.38;2.95;;;;;;;1.32;nan;99962.09;7398125;19;20478;-55
2023/11/26 05:48:45;;;;;;;2.25;1.38;;;;;;;1.33;nan;99956.19;7393827;19;20006;-55
2023/11/26 05:51:11;;;;;;;2.75;1.85;;;;;;;1.49;nan;99942.66;7393881;19;20020;-55
2023/11/26 05:53:37;;;;;;;1.02;1.02;;;;;;;1.34;nan;99941.28;7392768;19;20499;-55
2023/11/26 05:56:06;;;;;;;1.05;0.95;;;;;;;1.31;nan;99944.06;7396064;19;20021;-55
2023/11/26 05:58:33;;;;;;;8.75;2.80;;;;;;;1.23;nan;99943.41;7391597;19;20048;-55
2023/11/26 06:00:59;;;;;;;6.75;1.85;;;;;;;1.59;nan;99931.94;7393225;19;20040;-55
2023/11/26 06:03:25;;;;;;;2.47;1.67;;;;;;;1.26;nan;99928.84;7392987;19;20018;-55
2023/11/26 06:05:52;;;;;;;1.85;1.75;;;;;;;1.27;nan;99937.84;7396346;19;20515;-55
2023/11/26 06:08:19;;;;;;;1.38;1.30;;;;;;;1.24;nan;99923.00;7395389;19;20011;-55
2023/11/26 06:10:46;;;;;;;3.40;1.70;;;;;;;2.01;nan;99942.31;7393324;19;20011;-55
2023/11/26 06:13:12;;;;;;;0.80;0.80;;;;;;;1.43;nan;99930.59;7396929;19;20011;-55
2023/11/26 06:15:39;;;;;;;2.42;2.20;;;;;;;1.32;nan;99932.69;7393929;19;20019;-55
2023/11/26 06:18:06;;;;;;;11.77;2.50;;;;;;;1.31;nan;99928.41;7393018;19;20027;-55
2023/11/26 06:20:32;;;;;;;5.28;4.78;;;;;;;1.26;nan;99926.09;7396058;19;20347;-55
2023/11/26 06:22:59;;;;;;;2.38;1.65;;;;;;;1.27;nan;99924.94;7395052;19;20016;-55
2023/11/26 06:25:25;;;;;;;2.05;1.13;;;;;;;1.24;nan;99923.00;7401972;19;20062;-55
2023/11/26 06:27:51;;;;;;;8.60;0.95;;;;;;;1.21;nan;99925.78;7400298;19;20073;-55
2023/11/26 06:30:17;;;;;;;2.38;1.48;;;;;;;1.21;nan;99904.59;7400295;19;20356;-55
2023/11/26 06:32:43;;;;;;;0.77;0.60;;;;;;;1.24;nan;99912.03;7400016;19;20023;-55
2023/11/26 06:35:12;;;;;;;4.47;1.60;;;;;;;1.16;nan;99905.09;7399720;19;20321;-55
2023/11/26 06:37:39;;;;;;;5.57;1.63;;;;;;;1.15;nan;99903.50;7400486;19;20014;-55
2023/11/26 06:40:06;;;;;;;1.50;0.90;;;;;;;1.15;nan;99911.75;7400608;19;20066;-55
2023/11/26 06:42:33;;;;;;;6.25;1.42;;;;;;;1.16;nan;99907.81;7400249;19;20066;-55
2023/11/26 06:44:59;;;;;;;3.30;2.92;;;;;;;1.15;nan;99902.75;7398546;19;20026;-55
2023/11/26 06:47:27;;;;;;;0.77;0.77;;;;;;;1.16;nan;99907.81;7401197;19;20015;-55
2023/11/26 06:49:54;;;;;;;2.70;2.05;;;;;;;1.21;nan;99907.34;7399410;19;20011;-55
2023/11/26 06:52:20;;;;;;;6.80;1.48;;;;;;;1.27;nan;99910.44;7398857;19;20051;-55
2023/11/26 06:54:46;;;;;;;2.83;1.10;;;;;;;1.27;nan;99904.94;7397792;19;20006;-55
2023/11/26 06:57:12;;;;;;;0.57;0.57;;;;;;;1.22;nan;99908.91;7398506;19;20043;-55
2023/11/26 06:59:38;;;;;;;1.48;1.38;;;;;;;12.29;nan;99892.38;7400864;19;20011;-55
2023/11/26 07:02:04;;;;;;;1.58;1.48;;;;;;;3.22;nan;99920.53;7398939;19;20021;-55
2023/11/26 07:04:30;;;;;;;8.85;2.08;;;;;;;2.05;nan;99912.84;7398003;19;20493;-55
2023/11/26 07:06:56;;;;;;;5.82;1.27;;;;;;;23.19;nan;99869.13;7399462;19;20014;-55
2023/11/26 07:09:22;;;;;;;1.52;1.42;;;;;;;25.84;nan;99866.63;7402797;19;20021;-55
2023/11/26 07:11:49;;;;;;;10.45;2.22;;;;;;;11.41;nan;99886.91;7402087;19;20011;-55
2023/11/26 07:14:15;;;;;;;1.55;1.42;;;;;;;4.82;nan;99897.03;7397886;19;20086;-55
2023/11/26 07:16:41;;;;;;;0.77;0.77;;;;;;;3.25;nan;99903.16;7398582;19;20017;-55
2023/11/26 07:19:07;;;;;;;2.30;1.98;;;;;;;2.60;nan;99902.06;7399010;19;20325;-55
2023/11/26 07:21:40;;;;;;;9.63;1.27;;;;;;;2.23;nan;99894.84;7397911;19;20007;-55
2023/11/26 07:24:08;;;;;;;3.08;1.27;;;;;;;2.04;nan;99892.03;7401985;19;20022;-55
2023/11/26 07:26:34;;;;;;;6.30;2.40;;;;;;;1.89;nan;99896.22;7397837;19;20010;-55
2023/11/26 07:29:00;;;;;;;2.10;1.23;;;;;;;1.79;nan;99886.97;7398707;19;20025;-55
2023/11/26 07:31:27;;;;;;;2.85;1.98;;;;;;;1.74;nan;99884.66;7397021;19;20018;-55
2023/11/26 07:33:53;;;;;;;1.83;1.70;;;;;;;1.70;nan;99883.97;7397170;19;20474;-55
2023/11/26 07:36:24;;;;;;;9.10;1.38;;;;;;;1.65;nan;99881.66;7401198;19;20015;-55
2023/11/26 07:38:52;;;;;;;4.10;1.30;;;;;;;1.65;nan;99880.88;7398324;19;20015;-55
2023/11/26 07:41:19;;;;;;;5.82;1.88;;;;;;;1.61;nan;99877.41;7398766;19;20019;-55
2023/11/26 07:43:45;;;;;;;1.05;1.02;;;;;;;1.62;nan;99890.75;7401911;19;20030;-55
2023/11/26 07:46:13;;;;;;;1.58;1.42;;;;;;;1.62;nan;99876.25;7400197;19;20014;-55
2023/11/26 07:48:40;;;;;;;2.60;1.75;;;;;;;1.54;nan;99879.09;7398049;19;20470;-55
2023/11/26 07:51:06;;;;;;;6.18;2.08;;;;;;;10.95;nan;99860.72;7397384;19;20522;-55
2023/11/26 07:53:34;;;;;;;1.80;1.67;;;;;;;2.48;nan;99880.69;7397567;19;20019;-55
2023/11/26 07:56:00;;;;;;;1.02;1.00;;;;;;;1.91;nan;99872.63;7397094;19;20026;-55
2023/11/26 07:58:28;;;;;;;7.03;1.50;;;;;;;1.78;nan;99879.13;7400006;19;20038;-55
2023/11/26 08:00:57;;;;;;;1.95;1.00;;;;;;;1.73;nan;99874.13;7397365;19;20014;-55
2023/11/26 08:03:26;;;;;;;5.75;2.35;;;;;;;1.71;nan;99879.25;7396759;19;20023;-55
2023/11/26 08:05:53;;;;;;;5.63;2.47;;;;;;;1.72;nan;99887.06;7397472;19;20038;-55
2023/11/26 08:08:21;;;;;;;1.65;1.10;;;;;;;1.81;nan;99878.31;7397260;19;20020;-55
2023/11/26 08:10:49;;;;;;;0.63;0.63;;;;;;;1.73;nan;99883.13;7399138;19;20040;-55
2023/11/26 08:13:19;;;;;;;1.45;1.42;;;;;;;1.77;nan;99877.59;7400426;19;20048;-55
2023/11/26 08:15:47;;;;;;;1.10;1.10;;;;;;;1.76;nan;99881.50;7393901;19;20007;-55
2023/11/26 08:18:14;;;;;;;1.00;1.00;;;;;;;14.72;nan;99849.88;7396017;19;20129;-55
2023/11/26 08:20:40;;;;;;;9.48;2.42;;;;;;;8.67;nan;99871.22;7395671;19;20019;-55
2023/11/26 08:23:06;;;;;;;11.60;1.98;;;;;;;24.47;nan;99840.81;7399041;19;20041;-55
2023/11/26 08:25:34;;;;;;;0.98;0.93;;;;;;;28.31;nan;99835.56;7398174;19;20471;-55
2023/11/26 08:28:01;;;;;;;2.95;2.67;;;;;;;31.01;nan;99831.97;7400049;19;20456;-55
2023/11/26 08:30:30;;;;;;;2.95;2.58;;;;;;;32.13;nan;99826.16;7396129;19;20010;-55
2023/11/26 08:33:02;;;;;;;1.08;1.08;;;;;;;31.67;nan;99829.00;7395628;19;20014;-56
2023/11/26 08:35:29;;;;;;;2.22;2.03;;;;;;;33.52;nan;99825.69;7393821;19;20025;-55
2023/11/26 08:37:56;;;;;;;1.13;1.13;;;;;;;35.54;nan;99819.53;7395656;19;20010;-55
2023/11/26 08:40:23;;;;;;;3.80;3.40;;;;;;;36.08;nan;99812.59;7395356;19;20017;-55
2023/11/26 08:42:49;;;;;;;2.15;1.48;;;;;;;36.06;nan;99821.94;7398376;19;20042;-55
2023/11/26 08:45:15;;;;;;;7.53;2.33;;;;;;;36.25;nan;99823.50;7396984;19;20038;-55
2023/11/26 08:47:44;;;;;;;2.58;1.90;;;;;;;36.26;nan;99810.47;7395108;19;20010;-55
2023/11/26 08:50:11;;;;;;;2.20;2.05;;;;;;;36.76;nan;99815.59;7396029;19;20070;-55
2023/11/26 08:52:37;;;;;;;4.13;2.10;;;;;;;36.74;nan;99803.88;7395829;19;20506;-55
2023/11/26 08:55:04;;;;;;;0.95;0.60;;;;;;;24.81;nan;99826.13;7397189;19;20328;-56
2023/11/26 08:57:31;;;;;;;8.85;2.08;;;;;;;34.81;nan;99797.81;7400125;19;20019;-56
2023/11/26 08:59:58;;;;;;;2.17;1.98;;;;;;;33.17;nan;99810.69;7396667;19;20588;-56
2023/11/26 09:02:25;;;;;;;1.95;1.10;;;;;;;33.41;nan;99803.38;7397464;19;20044;-55
2023/11/26 09:04:51;;;;;;;1.55;1.45;;;;;;;35.15;nan;99793.72;7398272;19;20007;-55
2023/11/26 09:07:18;;;;;;;2.58;1.05;;;;;;;35.48;nan;99799.69;7397230;19;20074;-56
2023/11/26 09:09:44;;;;;;;3.85;3.47;;;;;;;35.60;nan;99793.72;7400902;19;20050;-55
2023/11/26 09:12:11;;;;;;;1.88;1.65;;;;;;;29.20;nan;99802.09;7396764;19;20006;-55
2023/11/26 09:14:37;;;;;;;1.30;1.25;;;;;;;32.23;nan;99789.28;7395265;19;20002;-56
2023/11/26 09:17:03;;;;;;;11.98;1.85;;;;;;;35.63;nan;99786.59;7397798;19;20427;-56
2023/11/26 09:19:29;;;;;;;1.15;1.15;;;;;;;35.49;nan;99792.50;7395358;19;20014;-56
2023/11/26 09:21:56;;;;;;;5.18;1.90;;;;;;;34.23;nan;99793.44;7395000;19;20016;-56
2023/11/26 09:24:22;;;;;;;2.35;1.55;;;;;;;20.54;nan;99806.47;7395039;19;20044;-61
2023/11/26 09:26:48;;;;;;;6.63;1.85;;;;;;;6.77;nan;99839.94;7395085;19;20014;-61
2023/11/26 09:29:14;;;;;;;1.45;1.35;;;;;;;29.97;nan;99786.09;7393983;19;20022;-61
2023/11/26 09:31:41;;;;;;;1.00;0.82;;;;;;;10.17;nan;99825.75;7394287;19;20010;-56
2023/11/26 09:34:08;;;;;;;7.28;1.95;;;;;;;31.59;nan;99786.06;7393457;19;20014;-56
2023/11/26 09:36:34;;;;;;;3.58;2.10;;;;;;;34.64;nan;99773.13;7394292;19;20559;-56
2023/11/26 09:39:00;;;;;;;0.88;0.80;;;;;;;35.46;nan;99761.91;7394262;19;20026;-56
2023/11/26 09:41:26;;;;;;;14.35;2.22;;;;;;;36.13;nan;99754.09;7392259;19;20451;-56
2023/11/26 09:43:52;;;;;;;6.00;2.30;;;;;;;36.14;nan;99746.91;7397652;19;20789;-56
2023/11/26 09:46:20;;;;;;;3.90;1.48;;;;;;;16.69;nan;99772.94;7397458;19;20019;-56
2023/11/26 09:48:46;;;;;;;2.60;2.40;;;;;;;14.30;nan;99771.50;7392982;19;20014;-56
2023/11/26 09:51:13;;;;;;;1.80;1.52;;;;;;;14.15;nan;99773.69;7397704;19;20021;-56
2023/11/26 09:53:40;;;;;;;11.10;2.72;;;;;;;21.28;nan;99761.88;7394731;19;20014;-56
2023/11/26 09:56:11;;;;;;;2.78;1.70;;;;;;;33.35;nan;99745.28;7396950;19;20455;-56
2023/11/26 09:58:38;;;;;;;1.30;1.20;;;;;;;16.88;nan;99773.06;7390774;19;20451;-56
2023/11/26 10:01:09;;;;;;;4.88;2.38;;;;;;;14.21;nan;99772.44;7394650;19;20017;-55
2023/11/26 10:03:56;;;;;;;4.93;3.10;;;;;;;13.43;nan;99774.00;7395724;19;20020;-56
2023/11/26 10:06:23;;;;;;;3.95;1.30;;;;;;;13.04;nan;99763.75;7397406;19;20046;-56
2023/11/26 10:08:49;;;;;;;7.50;1.65;;;;;;;12.98;nan;99755.28;7395126;19;20357;-56
2023/11/26 10:11:22;;;;;;;6.47;3.00;;;;;;;13.00;nan;99760.38;7392845;19;20376;-56
2023/11/26 10:13:49;;;;;;;6.78;1.88;;;;;;;13.14;nan;99759.53;7398049;19;20015;-56
2023/11/26 10:16:33;;;;;;;4.75;3.10;;;;;;;13.14;nan;99760.31;7396346;19;20347;-56
2023/11/26 10:19:02;;;;;;;4.72;1.80;;;;;;;12.76;nan;99766.25;7394549;19;20027;-56
2023/11/26 10:21:30;;;;;;;4.03;2.28;;;;;;;12.83;nan;99763.78;7394611;19;20019;-56
2023/11/26 10:24:00;;;;;;;11.18;3.05;;;;;;;13.00;nan;99752.78;7393987;19;20015;-57
2023/11/26 10:26:26;;;;;;;1.88;1.05;;;;;;;12.90;nan;99751.41;7397592;19;20017;-56
2023/11/26 10:29:00;;;;;;;2.50;1.92;;;;;;;12.93;nan;99750.41;7397201;19;20900;-56
2023/11/26 10:31:27;;;;;;;1.90;1.67;;;;;;;12.98;nan;99758.09;7392628;19;20344;-57
2023/11/26 10:34:07;;;;;;;11.27;3.15;;;;;;;13.10;nan;99748.59;7392417;19;20023;-57
2023/11/26 10:36:33;;;;;;;1.60;1.52;;;;;;;31.96;nan;99708.41;7392787;19;20065;-57
2023/11/26 10:39:04;;;;;;;0.70;0.70;;;;;;;35.36;nan;99712.19;7392487;19;20459;-56
2023/11/26 10:41:34;;;;;;;1.85;0.95;;;;;;;36.72;nan;99693.50;7392506;19;20014;-57
2023/11/26 10:44:00;;;;;;;0.88;0.88;;;;;;;36.22;nan;99691.38;7397167;19;20372;-57
2023/11/26 10:46:32;;;;;;;1.52;0.95;;;;;;;36.36;nan;99686.19;7396835;19;20014;-57
2023/11/26 10:49:28;;;;;;;4.95;1.20;;;;;;;36.68;nan;99687.53;7391945;19;20014;-56
2023/11/26 10:52:14;;;;;;;0.98;0.98;;;;;;;36.98;nan;99690.91;7390281;19;20017;-57
2023/11/26 10:54:51;;;;;;;0.77;0.70;;;;;;;20.28;nan;99707.50;7390563;19;20010;-57
2023/11/26 10:57:47;;;;;;;0.93;0.90;;;;;;;15.05;nan;99715.34;7391737;19;20015;-57
2023/11/26 11:00:21;;;;;;;1.35;0.77;;;;;;;7.44;nan;99741.25;7391871;19;20386;-57
2023/11/26 11:02:48;;;;;;;4.65;1.42;;;;;;;10.46;nan;99728.38;7391555;19;20017;-57
2023/11/26 11:05:20;;;;;;;1.35;1.25;;;;;;;13.87;nan;99714.75;7393981;19;20031;-57
2023/11/26 11:07:47;;;;;;;;;;;;;;;16.99;nan;99699.84;7392159;19;20010;-57
2023/11/26 11:10:22;;;;;;;3.53;1.48;;;;;;;21.59;nan;99696.38;7397291;19;19946;-56
2023/11/26 11:12:55;;;;;;;0.68;0.68;;;;;;;33.91;nan;99664.53;7401102;19;20010;-56
2023/11/26 11:15:23;;;;;;;1.27;1.13;;;;;;;36.36;nan;99657.19;7400096;19;20027;-56
2023/11/26 11:17:49;;;;;;;1.02;1.02;;;;;;;37.28;nan;99647.75;7398661;19;20014;-56
2023/11/26 11:20:15;;;;;;;4.60;1.60;;;;;;;37.81;nan;99651.19;7398717;19;20030;-56
2023/11/26 11:22:42;;;;;;;2.35;1.85;;;;;;;38.23;nan;99654.78;7398694;19;20006;-55
2023/11/26 11:25:13;;;;;;;3.45;1.23;;;;;;;38.25;nan;99649.09;7400696;19;20011;-56
2023/11/26 11:27:50;;;;;;;2.22;0.88;;;;;;;38.38;nan;99642.25;7398475;19;20364;-55
2023/11/26 11:30:52;;;;;;;1.00;0.80;;;;;;;38.87;nan;99639.47;7398782;19;20097;-56
2023/11/26 11:33:18;;;;;;;1.23;0.65;;;;;;;37.76;nan;99629.19;7395721;19;20010;-55
2023/11/26 11:35:46;;;;;;;0.75;0.75;;;;;;;37.07;nan;99623.78;7397489;19;20022;-55
2023/11/26 11:38:15;;;;;;;2.63;1.20;;;;;;;36.84;nan;99627.19;7398450;19;20010;-56
2023/11/26 11:41:00;;;;;;;1.65;1.00;;;;;;;36.01;nan;99622.34;7396347;19;20017;-56
2023/11/26 11:43:27;;;;;;;0.70;0.70;;;;;;;36.75;nan;99625.41;7401564;19;20018;-55
2023/11/26 11:45:54;;;;;;;0.95;0.73;;;;;;;37.38;nan;99619.09;7400998;19;20007;-55
2023/11/26 11:48:43;;;;;;;2.00;1.25;;;;;;;36.88;nan;99624.47;7397753;19;20495;-55
2023/11/26 11:51:36;;;;;;;3.70;1.05;;;;;;;36.82;nan;99621.31;7397348;19;20014;-55
2023/11/26 11:54:05;;;;;;;0.93;0.88;;;;;;;36.99;nan;99611.84;7396550;19;20011;-55
2023/11/26 11:56:31;;;;;;;1.73;1.10;;;;;;;36.89;nan;99613.59;7402484;19;20011;-55